Terminal Aerodrome Forecast
Issued by NWS

Home | Current Version | Previous Version | Graphics & Text | Print | Product List | Glossary On
Versions: 1 2 3 4 5 6 7 8 9 10 11 12 13 14 15 16 17 18 19 20 21 22 23 24 25 26 27
000
FTUS43 KLOT 181510 AAA
TAFMDW
TAF AMD
KMDW 181510Z 1815/1912 26010KT 3SM BR SCT004 OVC005
      TEMPO 1815/1817 2SM BR OVC003
     FM181700 24010KT 6SM BR SCT004 OVC006
     FM182000 22012KT P6SM FEW007 SCT010
     FM182100 22012G17KT P6SM SCT015 SCT250
     FM190000 22006KT P6SM FEW010 SCT250
     FM190900 19005KT 5SM BR FEW007 SCT250=

USA.gov is the U.S. government's official web portal to all federal, state and local government web resources and services.